首页
METAR-TAF:

METAR-TAF

机场 :

Smithers, 不列颠哥伦比亚, 加拿大

纬度: 54-49N, 经度: 127-11W, 海拔: 523米

当前天气观测

该预报发布于43分钟前的15:00 UTC
风速3节,风向南转南东,在之间变化
温度 7°C
湿度 87%
气压 1008 hPa
能見度: 40.2公里
阴天层高于5000英尺
小雨

METAR: CYYD 261500Z 15003KT 100V170 25SM -RA OVC050 07/05 A2976 RMK SC8 SLP088

时间: 08:43 (15:43 UTC)

预报

该预报发布于2小时和3分钟前的13:40 UTC
预报有效从26日的 14点(UTC)到 27日的 02点(UTC)
风速5节,风向南转南东
能見度: 10公里
多云层高于4000英尺
阴天层高于7000英尺
小雨
短暂存在
从 26日的 14点(UTC)到 26日的 23点(UTC)
能見度: 10公里
从 26日的 2300点(UTC)
风速10节,风向
能見度: 10公里
多云层高于7000英尺
短暂存在
从 26日的 23点(UTC)到 27日的 02点(UTC)
能見度: 10公里
小阵雨

TAF: CYYD 261340Z 2614/2702 15005KT P6SM -RA BKN040 OVC070 TEMPO 2614/2623 P6SM NSW FM262300 19010KT P6SM BKN070 TEMPO 2623/2702 P6SM -SHRA RMK FCST BASED ON AUTO OBS. NXT FCST BY 261900Z

超过4000个机场的气象观测和天气预报(METAR&TAF报告)。

可查询的气象台以黄色和红色小点在地图上表示。

将鼠标移到小点上方,可查看气象台名称。

然后点击查看天气观测和预报。

如需切换地图:点击带黑十字的绿色按钮放大地图;点击带横线的绿色按钮缩小地图;或者点击绿色箭头查看邻近地区的地图。


METAR-TAF: